sensor_id;sensor_type;location;lat;lon;timestamp;P1;durP1;ratioP1;P2;durP2;ratioP2
69854;SDS011;57146;48.140;16.304;2022-07-29T00:02:26;5.28;;;2.42;;
69854;SDS011;57146;48.140;16.304;2022-07-29T00:04:54;4.65;;;2.25;;
69854;SDS011;57146;48.140;16.304;2022-07-29T00:07:21;4.93;;;2.40;;
69854;SDS011;57146;48.140;16.304;2022-07-29T00:09:48;4.78;;;2.33;;
69854;SDS011;57146;48.140;16.304;2022-07-29T00:12:20;5.43;;;2.20;;
69854;SDS011;57146;48.140;16.304;2022-07-29T00:14:55;4.82;;;2.60;;
69854;SDS011;57146;48.140;16.304;2022-07-29T00:17:23;5.90;;;2.58;;
69854;SDS011;57146;48.140;16.304;2022-07-29T00:19:51;4.07;;;2.38;;
69854;SDS011;57146;48.140;16.304;2022-07-29T00:22:18;5.32;;;2.65;;
69854;SDS011;57146;48.140;16.304;2022-07-29T00:24:49;5.80;;;2.40;;
69854;SDS011;57146;48.140;16.304;2022-07-29T00:27:16;5.45;;;2.45;;
69854;SDS011;57146;48.140;16.304;2022-07-29T00:29:44;5.18;;;2.38;;
69854;SDS011;57146;48.140;16.304;2022-07-29T00:32:11;5.43;;;2.22;;
69854;SDS011;57146;48.140;16.304;2022-07-29T00:34:38;5.18;;;2.58;;
69854;SDS011;57146;48.140;16.304;2022-07-29T00:37:05;5.93;;;2.40;;
69854;SDS011;57146;48.140;16.304;2022-07-29T00:39:33;4.47;;;2.08;;
69854;SDS011;57146;48.140;16.304;2022-07-29T00:42:02;4.40;;;2.25;;
69854;SDS011;57146;48.140;16.304;2022-07-29T00:44:30;5.07;;;2.35;;
69854;SDS011;57146;48.140;16.304;2022-07-29T00:46:57;4.20;;;2.55;;
69854;SDS011;57146;48.140;16.304;2022-07-29T00:49:24;4.77;;;2.30;;
69854;SDS011;57146;48.140;16.304;2022-07-29T00:51:51;4.93;;;2.60;;
69854;SDS011;57146;48.140;16.304;2022-07-29T00:54:18;5.13;;;2.72;;
69854;SDS011;57146;48.140;16.304;2022-07-29T00:56:45;5.22;;;2.58;;
69854;SDS011;57146;48.140;16.304;2022-07-29T00:59:11;5.03;;;2.58;;
69854;SDS011;57146;48.140;16.304;2022-07-29T01:01:38;5.27;;;2.50;;
69854;SDS011;57146;48.140;16.304;2022-07-29T01:04:05;5.72;;;2.72;;
69854;SDS011;57146;48.140;16.304;2022-07-29T01:06:33;5.78;;;2.47;;
69854;SDS011;57146;48.140;16.304;2022-07-29T01:09:01;4.90;;;2.67;;
69854;SDS011;57146;48.140;16.304;2022-07-29T01:11:28;5.95;;;2.47;;
69854;SDS011;57146;48.140;16.304;2022-07-29T01:13:56;4.87;;;2.33;;
69854;SDS011;57146;48.140;16.304;2022-07-29T01:16:31;4.57;;;2.58;;
69854;SDS011;57146;48.140;16.304;2022-07-29T01:21:56;5.53;;;2.58;;
69854;SDS011;57146;48.140;16.304;2022-07-29T01:27:26;6.40;;;2.60;;
69854;SDS011;57146;48.140;16.304;2022-07-29T01:30:13;6.00;;;2.58;;
69854;SDS011;57146;48.140;16.304;2022-07-29T01:32:41;4.00;;;2.13;;
69854;SDS011;57146;48.140;16.304;2022-07-29T01:35:17;4.55;;;2.42;;
69854;SDS011;57146;48.140;16.304;2022-07-29T01:38:00;4.97;;;2.40;;
69854;SDS011;57146;48.140;16.304;2022-07-29T01:40:40;5.50;;;2.50;;
69854;SDS011;57146;48.140;16.304;2022-07-29T01:43:15;4.90;;;2.33;;
69854;SDS011;57146;48.140;16.304;2022-07-29T01:45:51;5.40;;;2.58;;
69854;SDS011;57146;48.140;16.304;2022-07-29T01:48:23;6.68;;;2.60;;
69854;SDS011;57146;48.140;16.304;2022-07-29T01:53:47;6.43;;;2.60;;
69854;SDS011;57146;48.140;16.304;2022-07-29T01:56:20;4.95;;;2.58;;
69854;SDS011;57146;48.140;16.304;2022-07-29T01:58:50;6.75;;;2.70;;
69854;SDS011;57146;48.140;16.304;2022-07-29T02:01:20;5.78;;;2.50;;
69854;SDS011;57146;48.140;16.304;2022-07-29T02:03:50;5.43;;;2.50;;
69854;SDS011;57146;48.140;16.304;2022-07-29T02:06:20;6.00;;;2.50;;
69854;SDS011;57146;48.140;16.304;2022-07-29T02:08:49;6.50;;;2.50;;
69854;SDS011;57146;48.140;16.304;2022-07-29T02:11:19;4.70;;;2.40;;
69854;SDS011;57146;48.140;16.304;2022-07-29T02:13:46;5.45;;;2.65;;
69854;SDS011;57146;48.140;16.304;2022-07-29T02:16:15;4.30;;;2.25;;
69854;SDS011;57146;48.140;16.304;2022-07-29T02:18:45;4.20;;;2.40;;
69854;SDS011;57146;48.140;16.304;2022-07-29T02:21:16;6.00;;;2.60;;
69854;SDS011;57146;48.140;16.304;2022-07-29T02:23:49;4.95;;;2.60;;
69854;SDS011;57146;48.140;16.304;2022-07-29T02:26:19;5.40;;;2.55;;
69854;SDS011;57146;48.140;16.304;2022-07-29T02:28:50;4.35;;;2.28;;
69854;SDS011;57146;48.140;16.304;2022-07-29T02:31:21;5.43;;;2.60;;
69854;SDS011;57146;48.140;16.304;2022-07-29T02:33:52;6.97;;;2.72;;
69854;SDS011;57146;48.140;16.304;2022-07-29T02:36:21;6.80;;;2.63;;
69854;SDS011;57146;48.140;16.304;2022-07-29T02:38:50;6.22;;;2.72;;
69854;SDS011;57146;48.140;16.304;2022-07-29T02:41:25;6.55;;;2.63;;
69854;SDS011;57146;48.140;16.304;2022-07-29T02:43:57;6.33;;;2.67;;
69854;SDS011;57146;48.140;16.304;2022-07-29T02:46:33;6.03;;;2.42;;
69854;SDS011;57146;48.140;16.304;2022-07-29T02:49:09;6.47;;;2.80;;
69854;SDS011;57146;48.140;16.304;2022-07-29T02:51:46;6.68;;;2.80;;
69854;SDS011;57146;48.140;16.304;2022-07-29T02:57:17;5.87;;;2.80;;
69854;SDS011;57146;48.140;16.304;2022-07-29T02:59:49;4.93;;;2.80;;
69854;SDS011;57146;48.140;16.304;2022-07-29T03:02:19;5.80;;;2.58;;
69854;SDS011;57146;48.140;16.304;2022-07-29T03:04:48;5.40;;;2.80;;
69854;SDS011;57146;48.140;16.304;2022-07-29T03:07:18;6.32;;;2.80;;
69854;SDS011;57146;48.140;16.304;2022-07-29T03:09:46;5.77;;;2.80;;
69854;SDS011;57146;48.140;16.304;2022-07-29T03:12:14;4.95;;;2.90;;
69854;SDS011;57146;48.140;16.304;2022-07-29T03:14:43;5.63;;;2.60;;
69854;SDS011;57146;48.140;16.304;2022-07-29T03:17:10;4.65;;;2.40;;
69854;SDS011;57146;48.140;16.304;2022-07-29T03:19:38;5.28;;;2.70;;
69854;SDS011;57146;48.140;16.304;2022-07-29T03:22:06;6.30;;;3.00;;
69854;SDS011;57146;48.140;16.304;2022-07-29T03:24:34;5.35;;;2.58;;
69854;SDS011;57146;48.140;16.304;2022-07-29T03:27:02;9.80;;;3.10;;
69854;SDS011;57146;48.140;16.304;2022-07-29T03:29:31;6.82;;;2.95;;
69854;SDS011;57146;48.140;16.304;2022-07-29T03:32:03;5.53;;;3.17;;
69854;SDS011;57146;48.140;16.304;2022-07-29T03:34:34;6.13;;;2.57;;
69854;SDS011;57146;48.140;16.304;2022-07-29T03:37:02;6.95;;;2.97;;
69854;SDS011;57146;48.140;16.304;2022-07-29T03:39:30;4.60;;;2.65;;
69854;SDS011;57146;48.140;16.304;2022-07-29T03:42:01;4.70;;;2.58;;
69854;SDS011;57146;48.140;16.304;2022-07-29T03:44:31;5.50;;;3.10;;
69854;SDS011;57146;48.140;16.304;2022-07-29T03:46:59;5.60;;;3.03;;
69854;SDS011;57146;48.140;16.304;2022-07-29T03:49:27;6.10;;;2.78;;
69854;SDS011;57146;48.140;16.304;2022-07-29T03:51:56;5.22;;;2.90;;
69854;SDS011;57146;48.140;16.304;2022-07-29T03:54:23;8.32;;;3.13;;
69854;SDS011;57146;48.140;16.304;2022-07-29T03:56:50;5.82;;;2.90;;
69854;SDS011;57146;48.140;16.304;2022-07-29T03:59:19;6.90;;;2.93;;
69854;SDS011;57146;48.140;16.304;2022-07-29T04:01:47;7.10;;;2.47;;
69854;SDS011;57146;48.140;16.304;2022-07-29T04:04:15;5.55;;;2.78;;
69854;SDS011;57146;48.140;16.304;2022-07-29T04:06:44;6.53;;;2.97;;
69854;SDS011;57146;48.140;16.304;2022-07-29T04:09:14;5.15;;;2.80;;
69854;SDS011;57146;48.140;16.304;2022-07-29T04:11:41;5.50;;;2.73;;
69854;SDS011;57146;48.140;16.304;2022-07-29T04:14:28;7.80;;;3.05;;
69854;SDS011;57146;48.140;16.304;2022-07-29T04:16:57;5.20;;;2.97;;
69854;SDS011;57146;48.140;16.304;2022-07-29T04:19:24;6.15;;;3.20;;
69854;SDS011;57146;48.140;16.304;2022-07-29T04:21:51;6.80;;;3.00;;
69854;SDS011;57146;48.140;16.304;2022-07-29T04:24:17;8.73;;;3.03;;
69854;SDS011;57146;48.140;16.304;2022-07-29T04:26:45;8.20;;;2.95;;
69854;SDS011;57146;48.140;16.304;2022-07-29T04:29:13;5.97;;;3.00;;
69854;SDS011;57146;48.140;16.304;2022-07-29T04:31:40;10.35;;;3.35;;
69854;SDS011;57146;48.140;16.304;2022-07-29T04:34:08;9.15;;;3.13;;
69854;SDS011;57146;48.140;16.304;2022-07-29T04:36:35;7.10;;;3.30;;
69854;SDS011;57146;48.140;16.304;2022-07-29T04:39:02;6.82;;;2.92;;
69854;SDS011;57146;48.140;16.304;2022-07-29T04:41:29;6.78;;;2.70;;
69854;SDS011;57146;48.140;16.304;2022-07-29T04:43:59;8.30;;;3.40;;
69854;SDS011;57146;48.140;16.304;2022-07-29T04:46:26;7.30;;;3.15;;
69854;SDS011;57146;48.140;16.304;2022-07-29T04:48:53;9.13;;;3.30;;
69854;SDS011;57146;48.140;16.304;2022-07-29T04:51:20;8.02;;;3.13;;
69854;SDS011;57146;48.140;16.304;2022-07-29T04:53:47;9.55;;;3.00;;
69854;SDS011;57146;48.140;16.304;2022-07-29T04:56:14;6.35;;;3.10;;
69854;SDS011;57146;48.140;16.304;2022-07-29T04:58:41;10.43;;;3.75;;
69854;SDS011;57146;48.140;16.304;2022-07-29T05:01:07;6.50;;;3.40;;
69854;SDS011;57146;48.140;16.304;2022-07-29T05:03:34;7.28;;;3.33;;
69854;SDS011;57146;48.140;16.304;2022-07-29T05:06:01;8.95;;;3.30;;
69854;SDS011;57146;48.140;16.304;2022-07-29T05:08:28;7.38;;;3.53;;
69854;SDS011;57146;48.140;16.304;2022-07-29T05:10:55;7.60;;;3.40;;
69854;SDS011;57146;48.140;16.304;2022-07-29T05:13:22;6.90;;;3.33;;
69854;SDS011;57146;48.140;16.304;2022-07-29T05:15:49;7.90;;;3.45;;
69854;SDS011;57146;48.140;16.304;2022-07-29T05:18:16;5.18;;;2.70;;
69854;SDS011;57146;48.140;16.304;2022-07-29T05:20:42;6.60;;;3.25;;
69854;SDS011;57146;48.140;16.304;2022-07-29T05:23:09;6.53;;;2.85;;
69854;SDS011;57146;48.140;16.304;2022-07-29T05:25:36;5.37;;;2.97;;
69854;SDS011;57146;48.140;16.304;2022-07-29T05:28:09;7.50;;;2.90;;
69854;SDS011;57146;48.140;16.304;2022-07-29T05:30:36;6.28;;;2.97;;
69854;SDS011;57146;48.140;16.304;2022-07-29T05:33:03;6.72;;;3.20;;
69854;SDS011;57146;48.140;16.304;2022-07-29T05:35:30;7.70;;;3.22;;
69854;SDS011;57146;48.140;16.304;2022-07-29T05:37:57;6.53;;;3.03;;
69854;SDS011;57146;48.140;16.304;2022-07-29T05:40:24;6.88;;;3.05;;
69854;SDS011;57146;48.140;16.304;2022-07-29T05:42:51;5.38;;;3.03;;
69854;SDS011;57146;48.140;16.304;2022-07-29T05:45:17;5.55;;;2.60;;
69854;SDS011;57146;48.140;16.304;2022-07-29T05:47:44;7.45;;;2.88;;
69854;SDS011;57146;48.140;16.304;2022-07-29T05:50:11;6.13;;;2.90;;
69854;SDS011;57146;48.140;16.304;2022-07-29T05:52:39;7.07;;;3.00;;
69854;SDS011;57146;48.140;16.304;2022-07-29T05:55:06;5.28;;;2.65;;
69854;SDS011;57146;48.140;16.304;2022-07-29T05:57:33;6.05;;;2.75;;
69854;SDS011;57146;48.140;16.304;2022-07-29T06:00:00;6.50;;;2.70;;
69854;SDS011;57146;48.140;16.304;2022-07-29T06:02:37;6.93;;;3.40;;
69854;SDS011;57146;48.140;16.304;2022-07-29T06:05:04;7.18;;;2.92;;
69854;SDS011;57146;48.140;16.304;2022-07-29T06:07:37;6.05;;;2.63;;
69854;SDS011;57146;48.140;16.304;2022-07-29T06:10:14;7.07;;;3.33;;
69854;SDS011;57146;48.140;16.304;2022-07-29T06:12:41;6.28;;;3.30;;
69854;SDS011;57146;48.140;16.304;2022-07-29T06:15:08;6.63;;;3.07;;
69854;SDS011;57146;48.140;16.304;2022-07-29T06:17:35;5.55;;;3.00;;
69854;SDS011;57146;48.140;16.304;2022-07-29T06:20:22;7.68;;;2.90;;
69854;SDS011;57146;48.140;16.304;2022-07-29T06:22:52;5.43;;;2.90;;
69854;SDS011;57146;48.140;16.304;2022-07-29T06:25:19;5.70;;;2.70;;
69854;SDS011;57146;48.140;16.304;2022-07-29T06:27:46;6.23;;;2.87;;
69854;SDS011;57146;48.140;16.304;2022-07-29T06:30:13;4.80;;;2.38;;
69854;SDS011;57146;48.140;16.304;2022-07-29T06:32:40;4.70;;;2.33;;
69854;SDS011;57146;48.140;16.304;2022-07-29T06:35:09;6.50;;;3.08;;
69854;SDS011;57146;48.140;16.304;2022-07-29T06:37:55;4.72;;;2.72;;
69854;SDS011;57146;48.140;16.304;2022-07-29T06:40:24;6.27;;;2.53;;
69854;SDS011;57146;48.140;16.304;2022-07-29T06:42:51;6.38;;;2.70;;
69854;SDS011;57146;48.140;16.304;2022-07-29T06:45:18;4.65;;;2.58;;
69854;SDS011;57146;48.140;16.304;2022-07-29T06:47:45;7.80;;;3.67;;
69854;SDS011;57146;48.140;16.304;2022-07-29T06:50:12;4.80;;;2.75;;
69854;SDS011;57146;48.140;16.304;2022-07-29T06:52:39;5.60;;;2.60;;
69854;SDS011;57146;48.140;16.304;2022-07-29T06:55:06;5.53;;;2.90;;
69854;SDS011;57146;48.140;16.304;2022-07-29T06:57:34;5.32;;;2.60;;
69854;SDS011;57146;48.140;16.304;2022-07-29T07:00:01;5.20;;;2.83;;
69854;SDS011;57146;48.140;16.304;2022-07-29T07:02:27;5.53;;;2.45;;
69854;SDS011;57146;48.140;16.304;2022-07-29T07:04:54;6.00;;;2.53;;
69854;SDS011;57146;48.140;16.304;2022-07-29T07:07:21;6.40;;;2.75;;
69854;SDS011;57146;48.140;16.304;2022-07-29T07:09:48;4.78;;;2.67;;
69854;SDS011;57146;48.140;16.304;2022-07-29T07:12:15;7.90;;;2.80;;
69854;SDS011;57146;48.140;16.304;2022-07-29T07:14:42;6.20;;;2.72;;
69854;SDS011;57146;48.140;16.304;2022-07-29T07:17:08;5.10;;;3.03;;
69854;SDS011;57146;48.140;16.304;2022-07-29T07:19:35;6.32;;;2.80;;
69854;SDS011;57146;48.140;16.304;2022-07-29T07:22:02;5.55;;;2.65;;
69854;SDS011;57146;48.140;16.304;2022-07-29T07:24:30;4.20;;;2.70;;
69854;SDS011;57146;48.140;16.304;2022-07-29T07:26:57;4.60;;;2.65;;
69854;SDS011;57146;48.140;16.304;2022-07-29T07:29:23;4.47;;;2.40;;
69854;SDS011;57146;48.140;16.304;2022-07-29T07:31:50;4.47;;;2.40;;
69854;SDS011;57146;48.140;16.304;2022-07-29T07:34:22;4.72;;;2.72;;
69854;SDS011;57146;48.140;16.304;2022-07-29T07:36:55;6.40;;;2.55;;
69854;SDS011;57146;48.140;16.304;2022-07-29T07:39:22;4.65;;;2.58;;
69854;SDS011;57146;48.140;16.304;2022-07-29T07:41:48;4.57;;;2.50;;
69854;SDS011;57146;48.140;16.304;2022-07-29T07:44:15;5.50;;;2.47;;
69854;SDS011;57146;48.140;16.304;2022-07-29T07:46:43;5.68;;;2.83;;
69854;SDS011;57146;48.140;16.304;2022-07-29T07:49:10;6.22;;;2.80;;
69854;SDS011;57146;48.140;16.304;2022-07-29T07:51:37;6.72;;;2.88;;
69854;SDS011;57146;48.140;16.304;2022-07-29T07:54:04;6.27;;;2.70;;
69854;SDS011;57146;48.140;16.304;2022-07-29T07:56:32;6.45;;;2.85;;
69854;SDS011;57146;48.140;16.304;2022-07-29T07:59:00;6.00;;;2.63;;
69854;SDS011;57146;48.140;16.304;2022-07-29T08:01:27;6.32;;;3.20;;
69854;SDS011;57146;48.140;16.304;2022-07-29T08:04:13;5.35;;;2.60;;
69854;SDS011;57146;48.140;16.304;2022-07-29T08:06:40;5.63;;;2.70;;
69854;SDS011;57146;48.140;16.304;2022-07-29T08:09:08;5.47;;;2.90;;
69854;SDS011;57146;48.140;16.304;2022-07-29T08:11:54;5.40;;;2.83;;
69854;SDS011;57146;48.140;16.304;2022-07-29T08:14:21;6.32;;;2.80;;
69854;SDS011;57146;48.140;16.304;2022-07-29T08:16:48;6.10;;;2.45;;
69854;SDS011;57146;48.140;16.304;2022-07-29T08:19:15;4.97;;;2.70;;
69854;SDS011;57146;48.140;16.304;2022-07-29T08:21:42;7.38;;;2.80;;
69854;SDS011;57146;48.140;16.304;2022-07-29T08:24:09;4.10;;;2.58;;
69854;SDS011;57146;48.140;16.304;2022-07-29T08:26:36;6.38;;;2.88;;
69854;SDS011;57146;48.140;16.304;2022-07-29T08:29:02;4.80;;;2.40;;
69854;SDS011;57146;48.140;16.304;2022-07-29T08:31:29;4.47;;;2.60;;
69854;SDS011;57146;48.140;16.304;2022-07-29T08:33:56;6.25;;;2.72;;
69854;SDS011;57146;48.140;16.304;2022-07-29T08:36:24;5.95;;;2.95;;
69854;SDS011;57146;48.140;16.304;2022-07-29T08:38:50;4.05;;;2.60;;
69854;SDS011;57146;48.140;16.304;2022-07-29T08:41:18;5.03;;;2.67;;
69854;SDS011;57146;48.140;16.304;2022-07-29T08:43:46;5.10;;;2.50;;
69854;SDS011;57146;48.140;16.304;2022-07-29T08:46:13;5.60;;;2.95;;
69854;SDS011;57146;48.140;16.304;2022-07-29T08:48:41;6.35;;;2.67;;
69854;SDS011;57146;48.140;16.304;2022-07-29T08:51:08;6.25;;;2.42;;
69854;SDS011;57146;48.140;16.304;2022-07-29T08:53:35;5.10;;;2.80;;
69854;SDS011;57146;48.140;16.304;2022-07-29T08:56:02;5.00;;;2.80;;
69854;SDS011;57146;48.140;16.304;2022-07-29T08:58:31;5.57;;;2.80;;
69854;SDS011;57146;48.140;16.304;2022-07-29T09:01:03;6.55;;;2.92;;
69854;SDS011;57146;48.140;16.304;2022-07-29T09:03:33;4.78;;;2.67;;
69854;SDS011;57146;48.140;16.304;2022-07-29T09:06:03;5.35;;;2.80;;
69854;SDS011;57146;48.140;16.304;2022-07-29T09:08:31;6.93;;;2.73;;
69854;SDS011;57146;48.140;16.304;2022-07-29T09:11:00;6.22;;;3.05;;
69854;SDS011;57146;48.140;16.304;2022-07-29T09:13:30;4.50;;;2.70;;
69854;SDS011;57146;48.140;16.304;2022-07-29T09:15:57;5.82;;;2.90;;
69854;SDS011;57146;48.140;16.304;2022-07-29T09:18:34;5.65;;;3.03;;
69854;SDS011;57146;48.140;16.304;2022-07-29T09:21:01;5.23;;;2.87;;
69854;SDS011;57146;48.140;16.304;2022-07-29T09:23:29;5.20;;;2.45;;
69854;SDS011;57146;48.140;16.304;2022-07-29T09:25:56;4.65;;;2.35;;
69854;SDS011;57146;48.140;16.304;2022-07-29T09:28:32;5.63;;;2.60;;
69854;SDS011;57146;48.140;16.304;2022-07-29T09:30:59;5.25;;;2.70;;
69854;SDS011;57146;48.140;16.304;2022-07-29T09:33:34;4.83;;;2.47;;
69854;SDS011;57146;48.140;16.304;2022-07-29T09:36:05;4.88;;;2.35;;
69854;SDS011;57146;48.140;16.304;2022-07-29T09:38:33;5.50;;;2.33;;
69854;SDS011;57146;48.140;16.304;2022-07-29T09:41:02;4.28;;;2.60;;
69854;SDS011;57146;48.140;16.304;2022-07-29T09:43:32;5.05;;;2.80;;
69854;SDS011;57146;48.140;16.304;2022-07-29T09:46:17;4.73;;;2.47;;
69854;SDS011;57146;48.140;16.304;2022-07-29T09:48:44;4.60;;;2.50;;
69854;SDS011;57146;48.140;16.304;2022-07-29T09:51:17;5.90;;;2.50;;
69854;SDS011;57146;48.140;16.304;2022-07-29T09:53:52;4.65;;;2.83;;
69854;SDS011;57146;48.140;16.304;2022-07-29T09:56:19;4.78;;;2.67;;
69854;SDS011;57146;48.140;16.304;2022-07-29T09:58:45;5.00;;;2.50;;
69854;SDS011;57146;48.140;16.304;2022-07-29T10:01:12;5.20;;;2.50;;
69854;SDS011;57146;48.140;16.304;2022-07-29T10:03:52;4.20;;;2.80;;
69854;SDS011;57146;48.140;16.304;2022-07-29T10:06:19;5.30;;;2.78;;
69854;SDS011;57146;48.140;16.304;2022-07-29T10:08:46;6.15;;;2.72;;
69854;SDS011;57146;48.140;16.304;2022-07-29T10:11:15;6.57;;;2.63;;
69854;SDS011;57146;48.140;16.304;2022-07-29T10:13:44;5.10;;;2.60;;
69854;SDS011;57146;48.140;16.304;2022-07-29T10:16:12;4.28;;;2.60;;
69854;SDS011;57146;48.140;16.304;2022-07-29T10:18:41;4.63;;;2.80;;
69854;SDS011;57146;48.140;16.304;2022-07-29T10:21:10;3.80;;;2.40;;
69854;SDS011;57146;48.140;16.304;2022-07-29T10:23:57;3.87;;;2.57;;
69854;SDS011;57146;48.140;16.304;2022-07-29T10:26:27;4.28;;;2.58;;
69854;SDS011;57146;48.140;16.304;2022-07-29T10:28:55;5.82;;;2.63;;
69854;SDS011;57146;48.140;16.304;2022-07-29T10:31:26;5.45;;;2.90;;
69854;SDS011;57146;48.140;16.304;2022-07-29T10:34:27;5.10;;;3.00;;
69854;SDS011;57146;48.140;16.304;2022-07-29T10:37:03;5.50;;;2.80;;
69854;SDS011;57146;48.140;16.304;2022-07-29T10:42:53;5.13;;;2.92;;
69854;SDS011;57146;48.140;16.304;2022-07-29T10:45:27;5.50;;;2.53;;
69854;SDS011;57146;48.140;16.304;2022-07-29T10:48:03;4.18;;;2.90;;
69854;SDS011;57146;48.140;16.304;2022-07-29T10:53:48;5.05;;;2.95;;
69854;SDS011;57146;48.140;16.304;2022-07-29T10:56:26;4.47;;;3.00;;
69854;SDS011;57146;48.140;16.304;2022-07-29T11:01:48;4.30;;;2.63;;
69854;SDS011;57146;48.140;16.304;2022-07-29T11:07:10;4.38;;;2.70;;
69854;SDS011;57146;48.140;16.304;2022-07-29T11:09:37;17.67;;;3.33;;
69854;SDS011;57146;48.140;16.304;2022-07-29T11:12:50;9.15;;;3.20;;
69854;SDS011;57146;48.140;16.304;2022-07-29T11:15:05;8.40;;;3.33;;
69854;SDS011;57146;48.140;16.304;2022-07-29T11:20:38;5.20;;;3.15;;
69854;SDS011;57146;48.140;16.304;2022-07-29T11:29:01;7.13;;;3.35;;
69854;SDS011;57146;48.140;16.304;2022-07-29T11:31:44;4.83;;;3.13;;
69854;SDS011;57146;48.140;16.304;2022-07-29T11:34:16;6.18;;;3.47;;
69854;SDS011;57146;48.140;16.304;2022-07-29T11:39:34;5.30;;;2.97;;
69854;SDS011;57146;48.140;16.304;2022-07-29T11:45:06;4.93;;;3.30;;
69854;SDS011;57146;48.140;16.304;2022-07-29T11:47:59;6.63;;;3.30;;
69854;SDS011;57146;48.140;16.304;2022-07-29T11:50:46;5.47;;;3.30;;
69854;SDS011;57146;48.140;16.304;2022-07-29T11:53:14;7.60;;;3.28;;
69854;SDS011;57146;48.140;16.304;2022-07-29T11:55:41;5.55;;;3.20;;
69854;SDS011;57146;48.140;16.304;2022-07-29T11:58:21;5.03;;;3.33;;
69854;SDS011;57146;48.140;16.304;2022-07-29T12:00:50;6.10;;;2.95;;
69854;SDS011;57146;48.140;16.304;2022-07-29T12:03:27;5.72;;;3.00;;
69854;SDS011;57146;48.140;16.304;2022-07-29T12:06:15;5.80;;;3.42;;
69854;SDS011;57146;48.140;16.304;2022-07-29T12:09:08;6.10;;;3.20;;
69854;SDS011;57146;48.140;16.304;2022-07-29T12:11:40;6.77;;;3.37;;
69854;SDS011;57146;48.140;16.304;2022-07-29T12:14:24;5.68;;;3.30;;
69854;SDS011;57146;48.140;16.304;2022-07-29T12:17:00;4.75;;;3.38;;
69854;SDS011;57146;48.140;16.304;2022-07-29T12:19:26;6.53;;;3.40;;
69854;SDS011;57146;48.140;16.304;2022-07-29T12:21:54;4.95;;;3.60;;
69854;SDS011;57146;48.140;16.304;2022-07-29T12:24:27;4.67;;;3.03;;
69854;SDS011;57146;48.140;16.304;2022-07-29T12:27:10;5.50;;;3.40;;
69854;SDS011;57146;48.140;16.304;2022-07-29T12:29:39;5.70;;;3.53;;
69854;SDS011;57146;48.140;16.304;2022-07-29T12:32:13;6.68;;;3.80;;
69854;SDS011;57146;48.140;16.304;2022-07-29T12:34:45;4.72;;;3.38;;
69854;SDS011;57146;48.140;16.304;2022-07-29T12:37:12;5.50;;;3.37;;
69854;SDS011;57146;48.140;16.304;2022-07-29T12:39:39;6.03;;;3.60;;
69854;SDS011;57146;48.140;16.304;2022-07-29T12:42:13;5.10;;;3.30;;
69854;SDS011;57146;48.140;16.304;2022-07-29T12:44:47;7.25;;;3.30;;
69854;SDS011;57146;48.140;16.304;2022-07-29T12:47:16;5.50;;;3.60;;
69854;SDS011;57146;48.140;16.304;2022-07-29T12:49:45;4.90;;;3.40;;
69854;SDS011;57146;48.140;16.304;2022-07-29T12:54:55;4.82;;;3.15;;
69854;SDS011;57146;48.140;16.304;2022-07-29T12:57:22;4.38;;;3.30;;
69854;SDS011;57146;48.140;16.304;2022-07-29T12:59:59;5.10;;;3.10;;
69854;SDS011;57146;48.140;16.304;2022-07-29T13:02:31;6.63;;;3.77;;
69854;SDS011;57146;48.140;16.304;2022-07-29T13:04:58;5.10;;;3.40;;
69854;SDS011;57146;48.140;16.304;2022-07-29T13:07:28;4.80;;;3.25;;
69854;SDS011;57146;48.140;16.304;2022-07-29T13:10:18;5.45;;;3.13;;
69854;SDS011;57146;48.140;16.304;2022-07-29T13:13:09;6.05;;;3.17;;
69854;SDS011;57146;48.140;16.304;2022-07-29T13:15:46;6.20;;;2.90;;
69854;SDS011;57146;48.140;16.304;2022-07-29T13:18:34;5.85;;;3.22;;
69854;SDS011;57146;48.140;16.304;2022-07-29T13:21:11;6.90;;;3.30;;
69854;SDS011;57146;48.140;16.304;2022-07-29T13:23:40;6.03;;;2.90;;
69854;SDS011;57146;48.140;16.304;2022-07-29T13:26:08;4.55;;;2.80;;
69854;SDS011;57146;48.140;16.304;2022-07-29T13:28:37;4.67;;;3.00;;
69854;SDS011;57146;48.140;16.304;2022-07-29T13:31:04;4.57;;;2.80;;
69854;SDS011;57146;48.140;16.304;2022-07-29T13:33:31;4.68;;;2.95;;
69854;SDS011;57146;48.140;16.304;2022-07-29T13:35:58;5.75;;;2.90;;
69854;SDS011;57146;48.140;16.304;2022-07-29T13:38:25;5.47;;;3.08;;
69854;SDS011;57146;48.140;16.304;2022-07-29T13:40:56;6.20;;;3.00;;
69854;SDS011;57146;48.140;16.304;2022-07-29T13:43:24;19.52;;;3.83;;
69854;SDS011;57146;48.140;16.304;2022-07-29T13:45:51;7.85;;;2.72;;
69854;SDS011;57146;48.140;16.304;2022-07-29T13:48:18;7.35;;;3.00;;
69854;SDS011;57146;48.140;16.304;2022-07-29T13:50:44;12.25;;;3.20;;
69854;SDS011;57146;48.140;16.304;2022-07-29T13:53:11;7.30;;;3.30;;
69854;SDS011;57146;48.140;16.304;2022-07-29T13:55:43;7.93;;;3.33;;
69854;SDS011;57146;48.140;16.304;2022-07-29T13:58:10;53.55;;;5.65;;
69854;SDS011;57146;48.140;16.304;2022-07-29T14:00:37;14.45;;;4.38;;
69854;SDS011;57146;48.140;16.304;2022-07-29T14:03:04;11.07;;;4.03;;
69854;SDS011;57146;48.140;16.304;2022-07-29T14:05:31;8.07;;;4.43;;
69854;SDS011;57146;48.140;16.304;2022-07-29T14:07:57;7.32;;;4.30;;
69854;SDS011;57146;48.140;16.304;2022-07-29T14:10:24;7.15;;;4.57;;
69854;SDS011;57146;48.140;16.304;2022-07-29T14:12:52;7.18;;;4.40;;
69854;SDS011;57146;48.140;16.304;2022-07-29T14:15:19;8.15;;;4.47;;
69854;SDS011;57146;48.140;16.304;2022-07-29T14:17:46;7.37;;;4.30;;
69854;SDS011;57146;48.140;16.304;2022-07-29T14:20:13;6.70;;;4.40;;
69854;SDS011;57146;48.140;16.304;2022-07-29T14:22:39;7.13;;;4.00;;
69854;SDS011;57146;48.140;16.304;2022-07-29T14:25:10;7.20;;;3.88;;
69854;SDS011;57146;48.140;16.304;2022-07-29T14:27:40;7.18;;;3.80;;
69854;SDS011;57146;48.140;16.304;2022-07-29T14:30:08;6.10;;;4.30;;
69854;SDS011;57146;48.140;16.304;2022-07-29T14:32:35;7.05;;;4.20;;
69854;SDS011;57146;48.140;16.304;2022-07-29T14:35:03;6.60;;;4.20;;
69854;SDS011;57146;48.140;16.304;2022-07-29T14:37:30;9.77;;;5.13;;
69854;SDS011;57146;48.140;16.304;2022-07-29T14:40:08;7.97;;;4.75;;
69854;SDS011;57146;48.140;16.304;2022-07-29T14:42:39;7.80;;;4.80;;
69854;SDS011;57146;48.140;16.304;2022-07-29T14:45:07;8.35;;;4.40;;
69854;SDS011;57146;48.140;16.304;2022-07-29T14:47:36;7.43;;;4.50;;
69854;SDS011;57146;48.140;16.304;2022-07-29T14:50:03;7.85;;;4.90;;
69854;SDS011;57146;48.140;16.304;2022-07-29T14:52:31;6.95;;;4.53;;
69854;SDS011;57146;48.140;16.304;2022-07-29T14:54:58;7.68;;;4.60;;
69854;SDS011;57146;48.140;16.304;2022-07-29T14:57:25;7.45;;;4.10;;
69854;SDS011;57146;48.140;16.304;2022-07-29T14:59:51;6.97;;;4.60;;
69854;SDS011;57146;48.140;16.304;2022-07-29T15:02:18;8.60;;;4.80;;
69854;SDS011;57146;48.140;16.304;2022-07-29T15:04:45;9.30;;;4.60;;
69854;SDS011;57146;48.140;16.304;2022-07-29T15:07:12;7.03;;;4.73;;
69854;SDS011;57146;48.140;16.304;2022-07-29T15:09:39;6.40;;;4.35;;
69854;SDS011;57146;48.140;16.304;2022-07-29T15:12:15;8.05;;;4.70;;
69854;SDS011;57146;48.140;16.304;2022-07-29T15:14:42;10.75;;;5.72;;
69854;SDS011;57146;48.140;16.304;2022-07-29T15:17:09;8.75;;;5.18;;
69854;SDS011;57146;48.140;16.304;2022-07-29T15:19:36;7.53;;;5.07;;
69854;SDS011;57146;48.140;16.304;2022-07-29T15:22:03;6.57;;;4.78;;
69854;SDS011;57146;48.140;16.304;2022-07-29T15:24:30;7.75;;;4.45;;
69854;SDS011;57146;48.140;16.304;2022-07-29T15:26:58;6.05;;;4.40;;
69854;SDS011;57146;48.140;16.304;2022-07-29T15:29:24;6.32;;;3.97;;
69854;SDS011;57146;48.140;16.304;2022-07-29T15:31:51;6.73;;;4.50;;